Time;durP1;ratioP1;P1;durP2;ratioP2;P2;SDS_P1;SDS_P2;PMS_P1;PMS_P2;Temp;Humidity;BMP_temperature;BMP_pressure;BME280_temperature;BME280_humidity;BME280_pressure;Samples;Min_cycle;Max_cycle;Signal;HPM_P1;HPM_P2
2023/09/10 00:00:24;;;;;;;;;;;20.80;46.30;;;;;;5038545;28;82692;-60
2023/09/10 00:02:49;;;;;;;;;;;20.80;46.30;;;;;;5032352;27;82047;-60
2023/09/10 00:05:15;;;;;;;;;;;20.80;46.30;;;;;;5039553;28;82006;-59
2023/09/10 00:07:41;;;;;;;;;;;20.80;46.40;;;;;;5035482;28;83989;-60
2023/09/10 00:10:07;;;;;;;;;;;20.80;46.40;;;;;;5039819;28;82079;-60
2023/09/10 00:12:32;;;;;;;;;;;20.70;46.40;;;;;;5036829;28;82987;-60
2023/09/10 00:14:58;;;;;;;;;;;20.70;46.30;;;;;;5038439;28;83603;-60
2023/09/10 00:17:23;;;;;;;;;;;20.70;46.40;;;;;;5035279;28;81994;-59
2023/09/10 00:19:49;;;;;;;;;;;20.70;46.40;;;;;;5039689;28;82729;-59
2023/09/10 00:22:15;;;;;;;;;;;20.70;46.40;;;;;;5039158;28;82059;-59
2023/09/10 00:24:40;;;;;;;;;;;20.60;46.40;;;;;;5036883;28;83522;-60
2023/09/10 00:27:06;;;;;;;;;;;20.60;46.40;;;;;;5035868;28;83109;-59
2023/09/10 00:29:31;;;;;;;;;;;20.60;46.60;;;;;;5039093;28;82076;-59
2023/09/10 00:31:57;;;;;;;;;;;20.60;46.50;;;;;;5034389;28;82951;-59
2023/09/10 00:34:22;;;;;;;;;;;20.60;46.50;;;;;;5036755;27;83137;-59
2023/09/10 00:36:48;;;;;;;;;;;20.60;46.40;;;;;;5037980;28;81966;-59
2023/09/10 00:39:14;;;;;;;;;;;20.50;46.50;;;;;;5036973;28;82051;-59
2023/09/10 00:41:39;;;;;;;;;;;20.50;46.50;;;;;;5041306;28;82913;-59
2023/09/10 00:44:05;;;;;;;;;;;20.50;46.50;;;;;;5035896;28;82677;-59
2023/09/10 00:46:31;;;;;;;;;;;20.50;46.50;;;;;;5036789;28;82305;-60
2023/09/10 00:48:58;;;;;;;;;;;20.50;46.50;;;;;;5034933;28;81358;-59
2023/09/10 00:51:24;;;;;;;;;;;20.50;46.60;;;;;;5037435;28;81976;-60
2023/09/10 00:53:49;;;;;;;;;;;20.50;46.50;;;;;;5037721;28;83251;-59
2023/09/10 00:56:15;;;;;;;;;;;20.50;46.60;;;;;;5035723;28;82976;-59
2023/09/10 00:58:41;;;;;;;;;;;20.50;46.50;;;;;;5039002;28;83521;-59
2023/09/10 01:01:08;;;;;;;;;;;20.50;46.50;;;;;;5036296;28;82913;-59
2023/09/10 01:03:34;;;;;;;;;;;20.40;46.60;;;;;;5035171;28;82220;-59
2023/09/10 01:06:00;;;;;;;;;;;20.40;46.60;;;;;;5036516;28;82251;-59
2023/09/10 01:08:26;;;;;;;;;;;20.40;46.60;;;;;;5036822;28;82089;-60
2023/09/10 01:10:55;;;;;;;;;;;20.40;46.60;;;;;;5037317;28;82837;-60
2023/09/10 01:13:26;;;;;;;;;;;20.40;46.60;;;;;;5033230;28;82567;-59
2023/09/10 01:15:54;;;;;;;;;;;20.30;46.60;;;;;;5034732;28;82386;-60
2023/09/10 01:18:26;;;;;;;;;;;20.40;46.70;;;;;;5033752;28;83531;-59
2023/09/10 01:21:04;;;;;;;;;;;20.40;46.60;;;;;;5033457;28;84628;-59
2023/09/10 01:23:50;;;;;;;;;;;20.30;46.50;;;;;;5036415;28;82490;-59
2023/09/10 01:26:15;;;;;;;;;;;20.30;46.60;;;;;;5017414;27;82666;-59
2023/09/10 01:28:41;;;;;;;;;;;20.30;46.50;;;;;;5034165;28;81983;-59
2023/09/10 01:31:06;;;;;;;;;;;20.30;46.60;;;;;;5033740;28;82957;-59
2023/09/10 01:33:35;;;;;;;;;;;20.20;46.70;;;;;;5034890;28;83547;-59
2023/09/10 01:36:13;;;;;;;;;;;20.20;46.60;;;;;;5033919;28;82139;-60
2023/09/10 01:38:50;;;;;;;;;;;20.20;46.60;;;;;;5036368;28;82582;-59
2023/09/10 01:41:17;;;;;;;;;;;20.20;46.60;;;;;;5037084;28;83410;-59
2023/09/10 01:43:43;;;;;;;;;;;20.20;46.60;;;;;;5035277;28;82222;-59
2023/09/10 01:46:09;;;;;;;;;;;20.20;46.80;;;;;;5033588;28;83010;-60
2023/09/10 01:48:35;;;;;;;;;;;20.10;46.70;;;;;;5028906;28;82495;-59
2023/09/10 01:51:00;;;;;;;;;;;20.10;46.70;;;;;;5037294;28;82907;-59
2023/09/10 01:53:26;;;;;;;;;;;20.10;46.80;;;;;;5033869;28;83034;-59
2023/09/10 01:55:52;;;;;;;;;;;20.10;46.80;;;;;;5033446;28;82265;-59
2023/09/10 01:58:17;;;;;;;;;;;20.10;46.80;;;;;;5032598;28;82900;-60
2023/09/10 02:00:44;;;;;;;;;;;20.10;46.80;;;;;;5032545;28;83201;-59
2023/09/10 02:03:10;;;;;;;;;;;20.00;46.70;;;;;;5030435;28;82211;-59
2023/09/10 02:05:36;;;;;;;;;;;20.00;46.80;;;;;;5035069;28;82348;-60
2023/09/10 02:08:02;;;;;;;;;;;20.00;46.80;;;;;;5036201;28;83226;-59
2023/09/10 02:10:28;;;;;;;;;;;19.90;46.70;;;;;;5035573;28;83385;-59
2023/09/10 02:12:53;;;;;;;;;;;20.00;46.80;;;;;;5032719;28;82353;-59
2023/09/10 02:15:19;;;;;;;;;;;20.00;46.80;;;;;;5034694;28;82553;-59
2023/09/10 02:17:44;;;;;;;;;;;19.90;46.80;;;;;;5032570;28;82300;-59
2023/09/10 02:20:10;;;;;;;;;;;19.90;46.70;;;;;;5034387;28;83174;-59
2023/09/10 02:22:36;;;;;;;;;;;19.90;46.80;;;;;;5035022;28;82587;-59
2023/09/10 02:25:03;;;;;;;;;;;19.90;46.70;;;;;;5034877;28;82576;-60
2023/09/10 02:27:29;;;;;;;;;;;19.90;46.80;;;;;;5032021;28;82325;-59
2023/09/10 02:29:55;;;;;;;;;;;19.90;46.80;;;;;;5036363;28;82134;-60
2023/09/10 02:32:20;;;;;;;;;;;19.80;46.70;;;;;;5028995;28;83152;-60
2023/09/10 02:34:46;;;;;;;;;;;19.80;46.80;;;;;;5035013;28;83540;-59
2023/09/10 02:37:12;;;;;;;;;;;19.80;46.80;;;;;;5035463;28;82671;-57
2023/09/10 02:39:38;;;;;;;;;;;19.80;46.80;;;;;;5036005;28;83632;-59
2023/09/10 02:42:03;;;;;;;;;;;19.80;46.80;;;;;;5032681;28;83095;-59
2023/09/10 02:44:29;;;;;;;;;;;19.70;46.80;;;;;;5036443;28;83061;-59
2023/09/10 02:46:54;;;;;;;;;;;19.70;46.90;;;;;;5032168;28;83126;-60
2023/09/10 02:49:20;;;;;;;;;;;19.70;46.90;;;;;;5031684;28;82091;-59
2023/09/10 02:51:45;;;;;;;;;;;19.70;46.90;;;;;;5037677;28;82841;-59
2023/09/10 02:54:11;;;;;;;;;;;19.60;46.90;;;;;;5034748;28;82051;-59
2023/09/10 02:56:36;;;;;;;;;;;19.60;46.90;;;;;;5034177;27;82957;-59
2023/09/10 02:59:02;;;;;;;;;;;19.70;46.90;;;;;;5034828;28;83962;-59
2023/09/10 03:01:27;;;;;;;;;;;19.60;46.90;;;;;;5031632;28;82553;-59
2023/09/10 03:03:53;;;;;;;;;;;19.60;46.90;;;;;;5031933;28;82485;-59
2023/09/10 03:06:18;;;;;;;;;;;19.60;46.90;;;;;;5033777;28;83360;-59
2023/09/10 03:08:44;;;;;;;;;;;19.60;46.90;;;;;;5035676;28;82339;-59
2023/09/10 03:11:10;;;;;;;;;;;19.60;47.00;;;;;;5034617;28;81968;-59
2023/09/10 03:13:35;;;;;;;;;;;19.60;47.00;;;;;;5036184;28;83168;-59
2023/09/10 03:16:01;;;;;;;;;;;19.50;47.00;;;;;;5034179;28;83805;-60
2023/09/10 03:18:27;;;;;;;;;;;19.50;47.00;;;;;;5032727;28;82953;-60
2023/09/10 03:20:52;;;;;;;;;;;19.50;47.10;;;;;;5033947;28;82021;-60
2023/09/10 03:23:19;;;;;;;;;;;19.40;47.10;;;;;;5032515;28;83392;-60
2023/09/10 03:25:45;;;;;;;;;;;19.50;47.10;;;;;;5035858;28;82225;-59
2023/09/10 03:28:11;;;;;;;;;;;19.50;47.00;;;;;;5034617;28;82044;-60
2023/09/10 03:30:36;;;;;;;;;;;19.40;47.00;;;;;;5032795;27;82308;-59
2023/09/10 03:33:02;;;;;;;;;;;19.40;47.10;;;;;;5033893;28;83223;-59
2023/09/10 03:35:28;;;;;;;;;;;19.40;47.10;;;;;;5035327;28;82516;-59
2023/09/10 03:37:53;;;;;;;;;;;19.40;46.90;;;;;;5036478;28;82766;-59
2023/09/10 03:40:19;;;;;;;;;;;19.40;47.10;;;;;;5033987;28;81438;-60
2023/09/10 03:42:44;;;;;;;;;;;19.40;47.00;;;;;;5036481;28;82090;-59
2023/09/10 03:45:10;;;;;;;;;;;19.40;47.10;;;;;;5032005;28;82928;-59
2023/09/10 03:47:37;;;;;;;;;;;19.40;47.10;;;;;;5032413;28;83515;-59
2023/09/10 03:50:02;;;;;;;;;;;19.30;47.10;;;;;;5032374;28;82641;-59
2023/09/10 03:52:28;;;;;;;;;;;19.30;47.10;;;;;;5035741;28;83199;-59
2023/09/10 03:54:54;;;;;;;;;;;19.30;47.20;;;;;;5036243;28;82037;-59
2023/09/10 03:57:19;;;;;;;;;;;19.30;46.60;;;;;;5036458;28;83651;-59
2023/09/10 03:59:45;;;;;;;;;;;19.30;47.10;;;;;;5033603;28;81963;-59
2023/09/10 04:02:11;;;;;;;;;;;19.20;47.20;;;;;;5032794;28;82226;-59
2023/09/10 04:04:36;;;;;;;;;;;19.20;47.10;;;;;;5031268;28;82131;-59
2023/09/10 04:07:02;;;;;;;;;;;19.20;47.10;;;;;;5037154;28;82460;-60
2023/09/10 04:09:28;;;;;;;;;;;19.30;47.30;;;;;;5035745;27;82223;-60
2023/09/10 04:11:54;;;;;;;;;;;19.20;47.10;;;;;;5038479;28;84372;-59
2023/09/10 04:14:20;;;;;;;;;;;19.30;47.00;;;;;;5036405;28;82812;-60
2023/09/10 04:16:46;;;;;;;;;;;19.20;47.10;;;;;;5042153;28;82625;-60
2023/09/10 04:19:11;;;;;;;;;;;19.20;47.10;;;;;;5036260;28;82081;-60
2023/09/10 04:21:37;;;;;;;;;;;19.20;47.10;;;;;;5034587;28;82276;-60
2023/09/10 04:24:02;;;;;;;;;;;19.20;47.10;;;;;;5037197;28;83416;-61
2023/09/10 04:26:28;;;;;;;;;;;19.10;47.10;;;;;;5038924;28;82103;-60
2023/09/10 04:28:53;;;;;;;;;;;19.10;47.10;;;;;;5037011;28;82628;-60
2023/09/10 04:31:19;;;;;;;;;;;19.10;47.20;;;;;;5039404;28;83528;-60
2023/09/10 04:33:44;;;;;;;;;;;19.10;47.10;;;;;;5036630;27;82197;-60
2023/09/10 04:36:10;;;;;;;;;;;19.10;47.20;;;;;;5031304;28;83388;-60
2023/09/10 04:38:36;;;;;;;;;;;19.10;46.70;;;;;;5039225;28;82272;-60
2023/09/10 04:41:01;;;;;;;;;;;19.10;47.30;;;;;;5037319;28;82555;-60
2023/09/10 04:43:27;;;;;;;;;;;19.10;47.30;;;;;;5037054;28;86245;-60
2023/09/10 04:45:52;;;;;;;;;;;19.10;47.20;;;;;;5032300;28;82089;-60
2023/09/10 04:48:18;;;;;;;;;;;19.00;47.20;;;;;;5035619;28;82284;-60
2023/09/10 04:50:44;;;;;;;;;;;19.00;47.30;;;;;;5034396;28;83065;-60
2023/09/10 04:53:09;;;;;;;;;;;19.00;47.30;;;;;;5039230;28;81706;-60
2023/09/10 04:55:35;;;;;;;;;;;18.90;47.30;;;;;;5033952;28;82068;-61
2023/09/10 04:58:01;;;;;;;;;;;19.00;47.30;;;;;;5033192;28;82282;-60
2023/09/10 05:00:26;;;;;;;;;;;18.90;47.30;;;;;;5037529;28;82999;-60
2023/09/10 05:02:52;;;;;;;;;;;18.90;47.30;;;;;;5036155;28;83113;-60
2023/09/10 05:05:17;;;;;;;;;;;18.90;47.30;;;;;;5030444;28;82226;-60
2023/09/10 05:07:43;;;;;;;;;;;18.90;47.30;;;;;;5036052;28;82742;-60
2023/09/10 05:10:11;;;;;;;;;;;18.90;47.30;;;;;;5034139;28;83421;-60
2023/09/10 05:12:37;;;;;;;;;;;18.90;47.40;;;;;;5035576;28;82061;-60
2023/09/10 05:15:02;;;;;;;;;;;18.90;47.40;;;;;;5031054;28;84280;-60
2023/09/10 05:17:28;;;;;;;;;;;18.90;47.40;;;;;;5032892;28;81909;-60
2023/09/10 05:19:53;;;;;;;;;;;18.90;47.40;;;;;;5030558;27;82658;-60
2023/09/10 05:22:19;;;;;;;;;;;18.90;47.40;;;;;;5039191;28;82951;-60
2023/09/10 05:24:44;;;;;;;;;;;18.90;47.40;;;;;;5032763;28;84299;-60
2023/09/10 05:27:11;;;;;;;;;;;18.90;47.40;;;;;;5032492;28;83680;-60
2023/09/10 05:29:36;;;;;;;;;;;18.90;47.40;;;;;;5037003;28;83478;-60
2023/09/10 05:32:02;;;;;;;;;;;18.90;47.40;;;;;;5033084;28;83757;-60
2023/09/10 05:34:27;;;;;;;;;;;18.90;47.40;;;;;;5030581;28;82205;-60
2023/09/10 05:36:53;;;;;;;;;;;18.80;47.30;;;;;;5033536;28;83675;-60
2023/09/10 05:39:18;;;;;;;;;;;18.90;47.40;;;;;;5034917;28;82259;-61
2023/09/10 05:41:44;;;;;;;;;;;18.80;47.40;;;;;;5038248;28;81964;-60
2023/09/10 05:44:09;;;;;;;;;;;18.80;47.40;;;;;;5031526;28;82245;-60
2023/09/10 05:46:35;;;;;;;;;;;18.80;47.50;;;;;;5034266;28;82644;-60
2023/09/10 05:49:00;;;;;;;;;;;18.80;47.50;;;;;;5032594;28;83274;-60
2023/09/10 05:51:26;;;;;;;;;;;18.80;47.50;;;;;;5036926;28;83277;-60
2023/09/10 05:53:51;;;;;;;;;;;18.70;47.50;;;;;;5032056;28;85843;-60
2023/09/10 05:56:17;;;;;;;;;;;18.70;47.50;;;;;;5040841;28;85397;-60
2023/09/10 05:58:42;;;;;;;;;;;18.70;47.60;;;;;;5035895;28;82387;-61
2023/09/10 06:01:08;;;;;;;;;;;18.70;47.60;;;;;;5034697;28;82730;-61
2023/09/10 06:03:34;;;;;;;;;;;18.80;47.70;;;;;;5031879;28;86115;-60
2023/09/10 06:06:01;;;;;;;;;;;18.80;47.60;;;;;;5033658;28;82489;-60
2023/09/10 06:08:30;;;;;;;;;;;18.70;47.70;;;;;;5033865;28;82952;-60
2023/09/10 06:10:56;;;;;;;;;;;18.70;47.70;;;;;;5031691;28;82075;-60
2023/09/10 06:13:21;;;;;;;;;;;18.70;47.80;;;;;;5033852;28;83404;-61
2023/09/10 06:15:47;;;;;;;;;;;18.80;47.80;;;;;;5034322;28;82734;-60
2023/09/10 06:18:12;;;;;;;;;;;18.70;47.70;;;;;;5037955;28;82163;-60
2023/09/10 06:20:38;;;;;;;;;;;18.70;47.80;;;;;;5034369;28;83335;-60
2023/09/10 06:23:03;;;;;;;;;;;18.70;47.90;;;;;;5031135;28;83680;-60
2023/09/10 06:25:29;;;;;;;;;;;18.70;48.00;;;;;;5038401;28;82060;-60
2023/09/10 06:27:54;;;;;;;;;;;18.60;48.00;;;;;;5035017;28;82982;-61
2023/09/10 06:30:20;;;;;;;;;;;18.70;48.00;;;;;;5032215;28;82127;-60
2023/09/10 06:32:48;;;;;;;;;;;18.60;48.00;;;;;;5031001;28;82387;-60
2023/09/10 06:35:13;;;;;;;;;;;18.70;48.10;;;;;;5034441;28;86525;-60
2023/09/10 06:37:39;;;;;;;;;;;18.60;48.00;;;;;;5034390;28;83024;-60
2023/09/10 06:40:05;;;;;;;;;;;18.60;48.10;;;;;;5030404;28;83882;-60
2023/09/10 06:42:31;;;;;;;;;;;18.60;48.10;;;;;;5033337;28;83075;-60
2023/09/10 06:44:57;;;;;;;;;;;18.60;48.20;;;;;;5036104;28;82058;-60
2023/09/10 06:47:22;;;;;;;;;;;18.60;48.20;;;;;;5034960;27;82593;-60
2023/09/10 06:49:48;;;;;;;;;;;18.60;48.20;;;;;;5032457;28;82048;-60
2023/09/10 06:52:13;;;;;;;;;;;18.60;48.20;;;;;;5033292;28;82602;-60
2023/09/10 06:54:39;;;;;;;;;;;18.60;48.20;;;;;;5036493;28;82397;-60
2023/09/10 06:57:04;;;;;;;;;;;18.70;48.20;;;;;;5034084;28;82158;-59
2023/09/10 06:59:30;;;;;;;;;;;18.70;48.20;;;;;;5029995;28;82475;-60
2023/09/10 07:01:56;;;;;;;;;;;18.70;48.20;;;;;;5035110;28;83826;-60
2023/09/10 07:04:22;;;;;;;;;;;18.60;48.20;;;;;;5036341;28;82071;-60
2023/09/10 07:06:49;;;;;;;;;;;18.60;48.30;;;;;;5028244;28;83820;-60
2023/09/10 07:09:16;;;;;;;;;;;18.70;48.40;;;;;;5031637;28;83407;-60
2023/09/10 07:11:42;;;;;;;;;;;18.60;48.40;;;;;;5034910;28;82515;-60
2023/09/10 07:14:08;;;;;;;;;;;18.60;48.40;;;;;;5031030;28;83223;-60
2023/09/10 07:16:34;;;;;;;;;;;18.60;49.00;;;;;;5029816;28;83266;-60
2023/09/10 07:19:00;;;;;;;;;;;18.60;48.40;;;;;;5033442;28;82598;-60
2023/09/10 07:21:25;;;;;;;;;;;18.60;48.50;;;;;;5033442;28;83255;-60
2023/09/10 07:23:51;;;;;;;;;;;18.60;48.50;;;;;;5031092;28;83430;-60
2023/09/10 07:26:16;;;;;;;;;;;18.60;48.50;;;;;;5025329;28;82912;-60
2023/09/10 07:28:42;;;;;;;;;;;18.60;48.50;;;;;;5032980;28;82421;-60
2023/09/10 07:31:08;;;;;;;;;;;18.60;48.50;;;;;;5038057;28;82112;-60
2023/09/10 07:33:33;;;;;;;;;;;18.60;48.50;;;;;;5030591;28;82813;-60
2023/09/10 07:35:59;;;;;;;;;;;18.60;48.60;;;;;;5027618;28;82930;-60
2023/09/10 07:38:24;;;;;;;;;;;18.60;48.60;;;;;;5036327;28;82079;-60
2023/09/10 07:40:50;;;;;;;;;;;18.60;48.60;;;;;;5035815;28;83054;-60
2023/09/10 07:43:15;;;;;;;;;;;18.60;48.70;;;;;;5032032;28;81634;-60
2023/09/10 07:45:41;;;;;;;;;;;18.60;48.70;;;;;;5037177;27;82198;-60
2023/09/10 07:48:06;;;;;;;;;;;18.60;48.70;;;;;;5038023;28;83683;-60
2023/09/10 07:50:32;;;;;;;;;;;18.60;48.70;;;;;;5041552;28;83006;-60
2023/09/10 07:52:57;;;;;;;;;;;18.60;48.80;;;;;;5032328;28;82526;-59
2023/09/10 07:55:23;;;;;;;;;;;18.60;48.70;;;;;;5034044;28;82134;-60
2023/09/10 07:57:49;;;;;;;;;;;18.60;48.80;;;;;;5040130;28;82554;-60
2023/09/10 08:00:16;;;;;;;;;;;18.60;48.80;;;;;;5032044;28;83251;-61
2023/09/10 08:02:41;;;;;;;;;;;18.60;49.40;;;;;;5037954;28;82192;-60
2023/09/10 08:05:07;;;;;;;;;;;18.60;48.80;;;;;;5035743;28;82550;-59
2023/09/10 08:07:33;;;;;;;;;;;18.60;48.80;;;;;;5036587;28;82784;-60
2023/09/10 08:09:58;;;;;;;;;;;18.60;48.90;;;;;;5036444;28;82259;-60
2023/09/10 08:12:24;;;;;;;;;;;18.60;48.90;;;;;;5036393;28;82528;-60
2023/09/10 08:14:49;;;;;;;;;;;18.70;49.10;;;;;;5037658;28;83095;-61
2023/09/10 08:17:15;;;;;;;;;;;18.60;49.00;;;;;;5033886;28;83669;-60
2023/09/10 08:19:40;;;;;;;;;;;18.70;49.10;;;;;;5031383;28;83977;-60
2023/09/10 08:22:06;;;;;;;;;;;18.70;48.90;;;;;;5037835;28;82098;-60
2023/09/10 08:24:31;;;;;;;;;;;18.70;49.20;;;;;;5037793;28;82765;-61
2023/09/10 08:27:01;;;;;;;;;;;18.70;49.10;;;;;;5039291;28;83158;-60
2023/09/10 08:29:26;;;;;;;;;;;18.70;49.30;;;;;;5032499;28;82171;-60
2023/09/10 08:31:52;;;;;;;;;;;18.70;49.40;;;;;;5036415;28;82810;-60
2023/09/10 08:34:17;;;;;;;;;;;18.70;49.50;;;;;;5041835;28;83260;-60
2023/09/10 08:36:43;;;;;;;;;;;18.70;49.50;;;;;;5035603;28;82964;-60
2023/09/10 08:39:08;;;;;;;;;;;18.70;49.60;;;;;;5031250;28;84826;-60
2023/09/10 08:41:38;;;;;;;;;;;18.70;49.70;;;;;;5035523;28;82082;-59
2023/09/10 08:44:05;;;;;;;;;;;18.70;49.60;;;;;;5036291;28;82743;-60
2023/09/10 08:46:32;;;;;;;;;;;18.80;49.80;;;;;;5034625;28;83541;-60
2023/09/10 08:48:58;;;;;;;;;;;18.70;49.70;;;;;;5033255;28;82098;-59
2023/09/10 08:51:23;;;;;;;;;;;18.80;49.80;;;;;;5038463;28;82805;-60
2023/09/10 08:53:50;;;;;;;;;;;18.80;49.90;;;;;;5037021;28;83809;-60
2023/09/10 08:56:16;;;;;;;;;;;18.80;49.90;;;;;;5033453;28;81418;-56
2023/09/10 08:58:42;;;;;;;;;;;18.80;49.90;;;;;;5030911;28;83471;-59
2023/09/10 09:01:10;;;;;;;;;;;18.80;49.80;;;;;;5035154;28;82109;-60
2023/09/10 09:03:36;;;;;;;;;;;18.80;49.90;;;;;;5035134;28;84230;-60
2023/09/10 09:06:02;;;;;;;;;;;18.80;50.00;;;;;;5033741;28;83917;-60
2023/09/10 09:08:29;;;;;;;;;;;18.90;50.00;;;;;;5033467;28;82225;-59
2023/09/10 09:10:56;;;;;;;;;;;18.90;50.10;;;;;;5038100;28;82803;-60
2023/09/10 09:13:22;;;;;;;;;;;18.90;50.10;;;;;;5033029;28;83084;-60
2023/09/10 09:15:48;;;;;;;;;;;18.90;50.20;;;;;;5036422;28;81989;-60
2023/09/10 09:18:17;;;;;;;;;;;18.90;50.10;;;;;;5037818;28;83064;-60
2023/09/10 09:20:46;;;;;;;;;;;18.90;50.20;;;;;;5038568;28;81351;-60
2023/09/10 09:23:16;;;;;;;;;;;18.90;50.20;;;;;;5033110;27;82091;-59
2023/09/10 09:25:42;;;;;;;;;;;18.90;50.30;;;;;;5036346;28;82750;-60
2023/09/10 09:28:09;;;;;;;;;;;19.00;50.30;;;;;;5034010;28;83281;-60
2023/09/10 09:30:35;;;;;;;;;;;18.90;50.30;;;;;;5036790;28;83121;-60
2023/09/10 09:33:01;;;;;;;;;;;19.00;50.30;;;;;;5040907;28;82830;-60
2023/09/10 09:35:26;;;;;;;;;;;19.00;50.30;;;;;;5031680;28;82087;-60
2023/09/10 09:37:52;;;;;;;;;;;19.00;50.40;;;;;;5037020;28;82110;-61
2023/09/10 09:40:18;;;;;;;;;;;19.00;50.50;;;;;;5039211;28;83652;-60
2023/09/10 09:42:44;;;;;;;;;;;19.00;50.50;;;;;;5035655;28;82583;-60
2023/09/10 09:45:10;;;;;;;;;;;19.00;50.50;;;;;;5030658;28;82265;-60
2023/09/10 09:47:35;;;;;;;;;;;19.10;50.50;;;;;;5037247;28;82197;-60
2023/09/10 09:50:01;;;;;;;;;;;19.10;50.60;;;;;;5033991;28;82328;-60
2023/09/10 09:52:28;;;;;;;;;;;19.10;50.50;;;;;;5029306;28;84238;-59
2023/09/10 09:54:54;;;;;;;;;;;19.10;50.50;;;;;;5030728;28;82145;-60
2023/09/10 09:57:20;;;;;;;;;;;19.10;50.50;;;;;;5038500;28;82655;-60
2023/09/10 09:59:45;;;;;;;;;;;19.20;50.50;;;;;;5036610;28;83094;-59
2023/09/10 10:02:14;;;;;;;;;;;19.20;50.40;;;;;;5034577;28;82656;-60
2023/09/10 10:04:40;;;;;;;;;;;19.20;50.40;;;;;;5033627;28;83188;-61
2023/09/10 10:07:06;;;;;;;;;;;19.20;50.40;;;;;;5035100;28;81965;-60
2023/09/10 10:09:35;;;;;;;;;;;19.20;50.40;;;;;;5038322;28;82592;-59
2023/09/10 10:12:02;;;;;;;;;;;19.30;50.40;;;;;;5034199;28;83439;-60
2023/09/10 10:14:28;;;;;;;;;;;19.30;50.40;;;;;;5033800;28;82087;-60
2023/09/10 10:16:53;;;;;;;;;;;19.30;50.50;;;;;;5036256;28;82947;-60
2023/09/10 10:19:19;;;;;;;;;;;19.30;50.60;;;;;;5031294;28;83100;-60
2023/09/10 10:21:45;;;;;;;;;;;19.40;50.60;;;;;;5037097;28;83236;-60
2023/09/10 10:24:12;;;;;;;;;;;19.40;50.40;;;;;;5034125;28;83582;-60
2023/09/10 10:26:38;;;;;;;;;;;19.40;50.50;;;;;;5033728;28;82008;-61
2023/09/10 10:29:05;;;;;;;;;;;19.40;50.40;;;;;;5031715;28;82627;-60
2023/09/10 10:31:32;;;;;;;;;;;19.40;50.50;;;;;;5031277;28;83248;-60
2023/09/10 10:34:03;;;;;;;;;;;19.40;50.50;;;;;;5036237;28;81334;-59
2023/09/10 10:37:07;;;;;;;;;;;19.40;50.40;;;;;;5033582;27;81966;-60
2023/09/10 10:39:51;;;;;;;;;;;19.50;50.40;;;;;;5012762;28;83225;-60
2023/09/10 10:42:18;;;;;;;;;;;19.60;50.50;;;;;;5005823;28;83143;-60
2023/09/10 10:44:43;;;;;;;;;;;19.60;50.30;;;;;;5027944;28;83846;-60
2023/09/10 10:47:13;;;;;;;;;;;19.60;50.20;;;;;;5031821;28;82367;-61
2023/09/10 10:49:43;;;;;;;;;;;19.60;50.20;;;;;;5032450;28;82993;-60
2023/09/10 10:52:09;;;;;;;;;;;19.60;50.30;;;;;;5033027;28;83139;-61
2023/09/10 10:54:36;;;;;;;;;;;19.60;50.30;;;;;;5034034;28;82160;-60
2023/09/10 10:57:03;;;;;;;;;;;19.60;50.40;;;;;;5030870;28;82852;-60
2023/09/10 10:59:29;;;;;;;;;;;19.60;50.30;;;;;;5035732;28;82411;-60
2023/09/10 11:02:10;;;;;;;;;;;19.70;50.30;;;;;;5035857;28;82227;-60
2023/09/10 11:04:35;;;;;;;;;;;19.70;50.10;;;;;;5031443;28;82609;-60
2023/09/10 11:07:19;;;;;;;;;;;19.70;50.30;;;;;;5031433;28;84301;-61
2023/09/10 11:09:48;;;;;;;;;;;19.70;50.30;;;;;;5034212;28;83405;-60
2023/09/10 11:12:14;;;;;;;;;;;19.70;50.10;;;;;;5035531;28;83251;-60
2023/09/10 11:14:58;;;;;;;;;;;19.80;50.20;;;;;;5028101;28;82329;-60
2023/09/10 11:17:25;;;;;;;;;;;19.80;50.10;;;;;;5030948;27;82174;-60
2023/09/10 11:19:50;;;;;;;;;;;19.80;50.20;;;;;;5038410;28;83369;-60
2023/09/10 11:22:16;;;;;;;;;;;19.80;50.00;;;;;;5041549;28;82873;-61
2023/09/10 11:24:41;;;;;;;;;;;19.90;50.10;;;;;;5037050;27;83211;-61
2023/09/10 11:27:23;;;;;;;;;;;19.90;50.10;;;;;;5038963;28;83377;-60
2023/09/10 11:30:08;;;;;;;;;;;19.90;50.10;;;;;;5042470;28;82087;-60
2023/09/10 11:32:34;;;;;;;;;;;19.90;50.30;;;;;;5037282;28;83055;-60
2023/09/10 11:35:17;;;;;;;;;;;19.90;50.00;;;;;;5032917;28;82285;-60
2023/09/10 11:37:45;;;;;;;;;;;19.90;50.00;;;;;;5036476;28;83230;-59
2023/09/10 11:40:12;;;;;;;;;;;20.00;50.00;;;;;;5039242;28;82677;-59
2023/09/10 11:42:38;;;;;;;;;;;20.00;50.20;;;;;;5033544;28;82462;-60
2023/09/10 11:45:04;;;;;;;;;;;20.00;50.20;;;;;;5034100;28;82538;-60
2023/09/10 11:47:30;;;;;;;;;;;20.00;50.00;;;;;;5039765;28;83541;-59
2023/09/10 11:49:59;;;;;;;;;;;20.00;50.00;;;;;;5038324;28;81357;-60
2023/09/10 11:52:25;;;;;;;;;;;20.10;50.20;;;;;;5040357;28;82522;-61
2023/09/10 11:54:51;;;;;;;;;;;20.10;50.30;;;;;;5032791;28;82557;-60
2023/09/10 11:57:17;;;;;;;;;;;20.10;50.10;;;;;;5038577;28;83437;-61
2023/09/10 11:59:48;;;;;;;;;;;20.20;50.00;;;;;;5037132;28;84648;-60
2023/09/10 12:02:14;;;;;;;;;;;20.20;50.10;;;;;;5033833;28;82095;-60
2023/09/10 12:04:39;;;;;;;;;;;20.20;50.00;;;;;;5034717;28;83014;-60
2023/09/10 12:07:05;;;;;;;;;;;20.20;50.00;;;;;;5038379;28;82377;-61
2023/09/10 12:09:31;;;;;;;;;;;20.20;49.70;;;;;;5041046;28;82067;-60
2023/09/10 12:11:59;;;;;;;;;;;20.20;49.90;;;;;;5032773;28;83834;-60
2023/09/10 12:14:24;;;;;;;;;;;20.30;49.90;;;;;;5035339;28;81264;-60
2023/09/10 12:16:50;;;;;;;;;;;20.30;50.00;;;;;;5039108;28;81984;-61
2023/09/10 12:19:16;;;;;;;;;;;20.30;49.80;;;;;;5033405;28;82889;-60
2023/09/10 12:21:42;;;;;;;;;;;20.30;49.80;;;;;;5034043;28;84545;-60
2023/09/10 12:24:08;;;;;;;;;;;20.40;49.80;;;;;;5033912;28;83605;-61
2023/09/10 12:26:34;;;;;;;;;;;20.40;49.90;;;;;;5037186;28;82336;-61
2023/09/10 12:28:59;;;;;;;;;;;20.40;49.70;;;;;;5034129;28;83263;-61
2023/09/10 12:31:25;;;;;;;;;;;20.40;49.60;;;;;;5028600;28;82496;-60
2023/09/10 12:33:51;;;;;;;;;;;20.50;49.80;;;;;;5041250;28;83310;-60
2023/09/10 12:36:16;;;;;;;;;;;20.50;49.80;;;;;;5036070;28;82165;-60
2023/09/10 12:38:42;;;;;;;;;;;20.50;49.70;;;;;;5034331;28;82512;-60
2023/09/10 12:41:07;;;;;;;;;;;20.50;49.70;;;;;;5036256;28;82227;-60
2023/09/10 12:43:33;;;;;;;;;;;20.50;49.60;;;;;;5036752;28;82636;-60
2023/09/10 12:45:59;;;;;;;;;;;20.50;49.50;;;;;;5036773;28;84347;-61
2023/09/10 12:48:24;;;;;;;;;;;20.50;49.40;;;;;;5035149;28;83491;-60
2023/09/10 12:50:50;;;;;;;;;;;20.60;49.50;;;;;;5034660;28;82506;-60
2023/09/10 12:53:16;;;;;;;;;;;20.60;49.40;;;;;;5037408;28;83308;-60
2023/09/10 12:55:41;;;;;;;;;;;20.60;49.50;;;;;;5034514;28;82238;-60
2023/09/10 12:58:08;;;;;;;;;;;20.60;49.30;;;;;;5036977;28;83334;-61
2023/09/10 13:00:34;;;;;;;;;;;20.70;49.60;;;;;;5034890;28;82747;-61
2023/09/10 13:02:59;;;;;;;;;;;20.70;49.60;;;;;;5037257;28;82699;-61
2023/09/10 13:05:25;;;;;;;;;;;20.70;49.60;;;;;;5033921;28;82219;-60
2023/09/10 13:07:50;;;;;;;;;;;20.70;49.20;;;;;;5032525;28;83544;-60
2023/09/10 13:10:16;;;;;;;;;;;20.70;49.30;;;;;;5033792;28;82886;-61
2023/09/10 13:12:41;;;;;;;;;;;20.70;49.40;;;;;;5036661;28;83013;-61
2023/09/10 13:15:07;;;;;;;;;;;20.70;49.20;;;;;;5036767;28;82405;-56
2023/09/10 13:17:33;;;;;;;;;;;20.80;49.40;;;;;;5036049;28;82443;-61
2023/09/10 13:19:59;;;;;;;;;;;20.80;49.50;;;;;;5037985;28;82524;-61
2023/09/10 13:22:24;;;;;;;;;;;20.80;49.20;;;;;;5034883;28;82102;-60
2023/09/10 13:24:50;;;;;;;;;;;20.80;49.30;;;;;;5034451;28;82999;-61
2023/09/10 13:27:16;;;;;;;;;;;20.90;49.60;;;;;;5033513;28;81393;-61
2023/09/10 13:29:42;;;;;;;;;;;20.90;49.60;;;;;;5036482;28;82138;-60
2023/09/10 13:32:08;;;;;;;;;;;20.90;49.50;;;;;;5034381;28;83265;-59
2023/09/10 13:34:33;;;;;;;;;;;20.90;49.50;;;;;;5029568;28;84300;-61
2023/09/10 13:36:59;;;;;;;;;;;20.90;49.80;;;;;;5033117;28;83508;-61
2023/09/10 13:39:27;;;;;;;;;;;20.90;49.40;;;;;;5035870;28;83493;-60
2023/09/10 13:41:53;;;;;;;;;;;20.90;49.30;;;;;;5032780;27;82261;-61
2023/09/10 13:44:18;;;;;;;;;;;21.00;49.50;;;;;;5032723;28;83045;-60
2023/09/10 13:46:45;;;;;;;;;;;21.00;49.50;;;;;;5034957;28;82087;-60
2023/09/10 13:49:11;;;;;;;;;;;21.00;49.60;;;;;;5036463;27;83984;-61
2023/09/10 13:51:37;;;;;;;;;;;21.00;49.40;;;;;;5033629;28;82260;-61
2023/09/10 13:54:07;;;;;;;;;;;21.00;49.50;;;;;;5032483;28;82117;-62
2023/09/10 13:56:33;;;;;;;;;;;21.10;49.60;;;;;;5035542;28;82632;-60
2023/09/10 13:58:59;;;;;;;;;;;21.10;49.60;;;;;;5035235;28;84129;-60
2023/09/10 14:01:26;;;;;;;;;;;21.10;49.30;;;;;;5033232;28;82045;-60
2023/09/10 14:03:52;;;;;;;;;;;21.10;49.40;;;;;;5029111;28;83953;-60
2023/09/10 14:06:17;;;;;;;;;;;21.10;49.20;;;;;;5037814;28;82501;-61
2023/09/10 14:08:43;;;;;;;;;;;21.10;49.10;;;;;;5035131;28;83217;-61
2023/09/10 14:11:08;;;;;;;;;;;21.10;49.30;;;;;;5032342;28;83473;-61